Time,TemperatureF,DewpointF,PressureIn,WindDirection,WindDirectionDegrees,WindSpeedMPH,WindSpeedGustMPH,Humidity,HourlyPrecipIn,Conditions,Clouds,dailyrainin,SoftwareType,DateUTC
2013-05-10 00:00:00,62.1,60.4,29.84,North,5,0.0,5.0,94,0.00,,,1.03,Wunderground v.1.15,2013-05-10 05:00:00,
2013-05-10 00:10:00,62.0,60.3,29.84,North,5,0.0,5.0,94,0.00,,,0.00,Wunderground v.1.15,2013-05-10 05:10:00,
2013-05-10 00:20:00,62.1,60.7,29.83,North,5,0.0,5.0,95,0.00,,,0.00,Wunderground v.1.15,2013-05-10 05:20:00,
2013-05-10 00:30:00,62.5,60.7,29.85,NNW,337,4.0,10.0,94,0.00,,,0.00,Wunderground v.1.15,2013-05-10 05:30:00,
2013-05-10 00:40:00,62.9,61.1,29.86,North,11,8.0,8.0,94,0.00,,,0.00,Wunderground v.1.15,2013-05-10 05:40:00,
2013-05-10 00:50:00,63.3,61.2,29.86,NNE,21,7.0,7.0,93,0.00,,,0.00,Wunderground v.1.15,2013-05-10 05:50:00,
2013-05-10 01:00:00,63.4,61.3,29.86,North,5,5.0,5.0,93,0.00,,,0.00,Wunderground v.1.15,2013-05-10 06:00:00,
2013-05-10 01:10:00,63.3,60.9,29.86,North,355,4.0,6.0,92,0.00,,,0.00,Wunderground v.1.15,2013-05-10 06:10:00,
2013-05-10 01:20:00,63.1,60.7,29.86,North,355,3.0,3.0,92,0.00,,,0.00,Wunderground v.1.15,2013-05-10 06:20:00,
2013-05-10 01:40:00,62.7,60.6,29.84,NNW,342,3.0,3.0,93,0.00,,,0.00,Wunderground v.1.15,2013-05-10 06:40:00,
2013-05-10 01:50:00,62.6,60.5,29.84,NNW,342,0.0,5.0,93,0.00,,,0.00,Wunderground v.1.15,2013-05-10 06:50:00,
2013-05-10 02:00:00,62.6,60.8,29.84,NNW,342,0.0,5.0,94,0.00,,,0.00,Wunderground v.1.15,2013-05-10 07:00:00,
2013-05-10 02:10:00,62.5,60.7,29.83,NNW,342,0.0,5.0,94,0.00,,,0.00,Wunderground v.1.15,2013-05-10 07:10:00,
2013-05-10 02:20:00,62.4,60.7,29.83,NNW,342,0.0,5.0,94,0.00,,,0.00,Wunderground v.1.15,2013-05-10 07:20:00,
2013-05-10 02:30:00,62.3,60.6,29.83,NNW,342,0.0,5.0,94,0.00,,,0.00,Wunderground v.1.15,2013-05-10 07:30:00,
2013-05-10 02:40:00,61.9,60.2,29.83,NNW,342,0.0,5.0,94,0.00,,,0.00,Wunderground v.1.15,2013-05-10 07:40:00,
2013-05-10 02:50:00,61.2,59.5,29.82,NNW,342,0.0,5.0,94,0.00,,,0.00,Wunderground v.1.15,2013-05-10 07:50:00,
2013-05-10 03:00:00,60.9,59.2,29.81,NNW,342,0.0,5.0,94,0.00,,,0.00,Wunderground v.1.15,2013-05-10 08:00:00,
2013-05-10 03:10:00,61.5,60.1,29.83,NNW,342,0.0,5.0,95,0.00,,,0.00,Wunderground v.1.15,2013-05-10 08:10:00,
2013-05-10 03:20:00,61.6,60.2,29.83,NNW,342,0.0,5.0,95,0.00,,,0.00,Wunderground v.1.15,2013-05-10 08:20:00,
2013-05-10 03:30:00,61.5,60.1,29.83,NNW,342,0.0,5.0,95,0.00,,,0.00,Wunderground v.1.15,2013-05-10 08:30:00,
2013-05-10 03:40:00,61.6,60.4,29.84,NNW,342,0.0,5.0,96,0.00,,,0.00,Wunderground v.1.15,2013-05-10 08:40:00,
2013-05-10 03:50:00,61.7,60.5,29.84,NNW,342,0.0,5.0,96,0.00,,,0.00,Wunderground v.1.15,2013-05-10 08:50:00,
2013-05-10 04:00:00,61.9,60.7,29.84,NNW,342,0.0,5.0,96,0.00,,,0.00,Wunderground v.1.15,2013-05-10 09:00:00,
2013-05-10 04:10:00,62.0,60.8,29.85,NNW,342,1.0,1.0,96,0.00,,,0.00,Wunderground v.1.15,2013-05-10 09:10:00,
2013-05-10 04:20:00,62.0,60.8,29.87,NNW,342,0.0,5.0,96,0.00,,,0.00,Wunderground v.1.15,2013-05-10 09:20:00,
2013-05-10 04:30:00,62.1,60.9,29.88,NNW,342,0.0,5.0,96,0.00,,,0.00,Wunderground v.1.15,2013-05-10 09:30:00,
2013-05-10 04:40:00,62.2,61.0,29.89,NNW,342,0.0,5.0,96,0.00,,,0.00,Wunderground v.1.15,2013-05-10 09:40:00,
2013-05-10 04:50:00,62.3,61.1,29.90,NNW,340,0.0,5.0,96,0.00,,,0.00,Wunderground v.1.15,2013-05-10 09:50:00,
2013-05-10 05:00:00,62.3,61.1,29.91,NNW,340,0.0,5.0,96,0.35,,,0.03,Wunderground v.1.15,2013-05-10 10:00:00,
2013-05-10 05:10:00,62.4,61.2,29.93,West,266,0.0,5.0,96,0.15,,,0.05,Wunderground v.1.15,2013-05-10 10:10:00,
2013-05-10 05:20:00,62.3,61.1,29.94,West,263,0.0,5.0,96,0.25,,,0.08,Wunderground v.1.15,2013-05-10 10:20:00,
2013-05-10 05:30:00,62.2,61.0,29.93,West,263,0.0,5.0,96,0.23,,,0.14,Wunderground v.1.15,2013-05-10 10:30:00,
2013-05-10 05:40:00,62.0,60.8,29.93,West,263,0.0,5.0,96,0.07,,,0.15,Wunderground v.1.15,2013-05-10 10:40:00,
2013-05-10 05:50:00,61.9,60.7,29.92,West,263,0.0,5.0,96,0.14,,,0.17,Wunderground v.1.15,2013-05-10 10:50:00,
2013-05-10 06:00:00,61.8,60.6,29.93,West,263,0.0,5.0,96,0.04,,,0.17,Wunderground v.1.15,2013-05-10 11:00:00,
2013-05-10 06:10:00,61.7,60.5,29.93,West,270,0.0,5.0,96,0.07,,,0.19,Wunderground v.1.15,2013-05-10 11:10:00,
2013-05-10 06:20:00,61.7,60.5,29.93,WNW,288,3.0,5.0,96,0.05,,,0.19,Wunderground v.1.15,2013-05-10 11:20:00,
2013-05-10 06:30:00,61.7,60.8,29.95,WNW,288,0.0,5.0,97,0.00,,,0.19,Wunderground v.1.15,2013-05-10 11:30:00,
2013-05-10 06:40:00,61.8,60.9,29.95,WNW,288,0.0,5.0,97,0.00,,,0.20,Wunderground v.1.15,2013-05-10 11:40:00,
2013-05-10 06:50:00,61.9,61.0,29.96,WNW,288,0.0,5.0,97,0.05,,,0.21,Wunderground v.1.15,2013-05-10 11:50:00,
2013-05-10 07:00:00,62.0,61.1,29.96,WNW,288,0.0,5.0,97,0.05,,,0.21,Wunderground v.1.15,2013-05-10 12:00:00,
2013-05-10 07:10:00,62.0,61.1,29.91,ESE,120,6.0,11.0,97,0.00,,,0.21,Wunderground v.1.15,2013-05-10 12:10:00,
2013-05-10 07:20:00,61.9,61.0,29.88,ESE,120,11.0,11.0,97,0.00,,,0.21,Wunderground v.1.15,2013-05-10 12:20:00,
2013-05-10 07:30:00,62.1,61.2,29.88,ESE,110,9.0,9.0,97,0.00,,,0.21,Wunderground v.1.15,2013-05-10 12:30:00,
2013-05-10 07:40:00,62.2,61.3,29.89,ENE,77,1.0,1.0,97,0.00,,,0.21,Wunderground v.1.15,2013-05-10 12:40:00,
2013-05-10 07:50:00,62.2,61.3,29.90,ENE,77,0.0,5.0,97,0.00,,,0.21,Wunderground v.1.15,2013-05-10 12:50:00,
2013-05-10 08:00:00,62.1,61.2,29.89,ENE,77,0.0,5.0,97,0.00,,,0.21,Wunderground v.1.15,2013-05-10 13:00:00,
2013-05-10 08:10:00,62.2,61.3,29.89,ENE,77,0.0,5.0,97,0.00,,,0.21,Wunderground v.1.15,2013-05-10 13:10:00,
2013-05-10 08:20:00,63.5,62.6,29.91,NW,315,3.0,9.0,97,0.00,,,0.21,Wunderground v.1.15,2013-05-10 13:20:00,
2013-05-10 08:30:00,63.9,63.0,29.91,NW,317,3.0,5.0,97,0.00,,,0.21,Wunderground v.1.15,2013-05-10 13:30:00,
2013-05-10 08:40:00,64.6,63.7,29.91,West,278,3.0,3.0,97,0.00,,,0.21,Wunderground v.1.15,2013-05-10 13:40:00,
2013-05-10 08:50:00,65.6,64.4,29.92,NNW,340,4.0,5.0,96,0.00,,,0.22,Wunderground v.1.15,2013-05-10 13:50:00,
2013-05-10 09:00:00,65.7,64.2,29.92,North,360,5.0,8.0,95,0.00,,,0.22,Wunderground v.1.15,2013-05-10 14:00:00,
2013-05-10 09:10:00,66.2,64.1,29.92,NNE,21,7.0,7.0,93,0.00,,,0.22,Wunderground v.1.15,2013-05-10 14:10:00,
2013-05-10 09:20:00,66.9,64.2,29.93,NNE,19,6.0,6.0,91,0.00,,,0.22,Wunderground v.1.15,2013-05-10 14:20:00,
2013-05-10 09:30:00,67.8,64.4,29.93,NNE,32,5.0,9.0,89,0.00,,,0.22,Wunderground v.1.15,2013-05-10 14:30:00,
2013-05-10 09:40:00,68.4,64.4,29.94,NNE,30,8.0,8.0,87,0.00,,,0.22,Wunderground v.1.15,2013-05-10 14:40:00,
2013-05-10 09:50:00,68.5,64.5,29.94,NE,37,7.0,7.0,87,0.00,,,0.22,Wunderground v.1.15,2013-05-10 14:50:00,
2013-05-10 10:00:00,69.6,65.2,29.94,NNE,33,6.0,6.0,86,0.00,,,0.22,Wunderground v.1.15,2013-05-10 15:00:00,
2013-05-10 10:10:00,70.6,64.8,29.94,NNE,30,7.0,7.0,82,0.00,,,0.22,Wunderground v.1.15,2013-05-10 15:10:00,
2013-05-10 10:20:00,71.3,65.2,29.94,NE,36,8.0,11.0,81,0.00,,,0.22,Wunderground v.1.15,2013-05-10 15:20:00,
2013-05-10 10:30:00,72.1,64.5,29.94,NNE,31,9.0,9.0,77,0.00,,,0.22,Wunderground v.1.15,2013-05-10 15:30:00,
2013-05-10 10:40:00,72.4,65.2,29.93,NE,44,8.0,9.0,78,0.00,,,0.22,Wunderground v.1.15,2013-05-10 15:40:00,
2013-05-10 10:50:00,72.9,65.6,29.93,NE,44,7.0,7.0,78,0.00,,,0.22,Wunderground v.1.15,2013-05-10 15:50:00,
2013-05-10 11:00:00,73.4,66.1,29.93,NE,40,6.0,8.0,78,0.00,,,0.22,Wunderground v.1.15,2013-05-10 16:00:00,
2013-05-10 11:10:00,73.8,65.8,29.93,NE,43,6.0,6.0,76,0.00,,,0.22,Wunderground v.1.15,2013-05-10 16:10:00,
2013-05-10 11:20:00,74.3,65.5,29.92,NE,53,7.0,7.0,74,0.00,,,0.22,Wunderground v.1.15,2013-05-10 16:20:00,
2013-05-10 11:30:00,74.4,66.0,29.92,NE,53,7.0,7.0,75,0.00,,,0.22,Wunderground v.1.15,2013-05-10 16:30:00,
2013-05-10 11:40:00,74.8,65.6,29.91,NE,47,6.0,12.0,73,0.00,,,0.22,Wunderground v.1.15,2013-05-10 16:40:00,
2013-05-10 11:50:00,75.2,65.9,29.91,NE,36,8.0,8.0,73,0.00,,,0.22,Wunderground v.1.15,2013-05-10 16:50:00,
2013-05-10 12:00:00,75.7,65.6,29.92,NE,40,8.0,8.0,71,0.00,,,0.22,Wunderground v.1.15,2013-05-10 17:00:00,
2013-05-10 12:10:00,75.6,64.3,29.92,NNE,26,9.0,9.0,68,0.00,,,0.22,Wunderground v.1.15,2013-05-10 17:10:00,
2013-05-10 12:20:00,76.0,63.8,29.92,North,9,8.0,8.0,66,0.00,,,0.22,Wunderground v.1.15,2013-05-10 17:20:00,
2013-05-10 12:30:00,75.9,64.6,29.92,NE,46,8.0,8.0,68,0.00,,,0.22,Wunderground v.1.15,2013-05-10 17:30:00,
2013-05-10 12:40:00,76.5,63.9,29.92,ENE,67,8.0,8.0,65,0.00,,,0.22,Wunderground v.1.15,2013-05-10 17:40:00,
2013-05-10 12:50:00,76.9,63.3,29.92,NNE,33,8.0,8.0,63,0.00,,,0.22,Wunderground v.1.15,2013-05-10 17:50:00,
2013-05-10 13:00:00,77.3,65.1,29.92,NE,38,5.0,6.0,66,0.00,,,0.22,Wunderground v.1.15,2013-05-10 18:00:00,
2013-05-10 13:10:00,77.6,64.0,29.92,NNE,27,7.0,8.0,63,0.00,,,0.22,Wunderground v.1.15,2013-05-10 18:10:00,
2013-05-10 13:20:00,77.7,64.1,29.92,NE,38,3.0,5.0,63,0.00,,,0.22,Wunderground v.1.15,2013-05-10 18:20:00,
2013-05-10 13:30:00,77.9,62.9,29.92,NNE,33,6.0,6.0,60,0.00,,,0.22,Wunderground v.1.15,2013-05-10 18:30:00,
2013-05-10 13:40:00,78.1,63.6,29.92,NE,40,4.0,4.0,61,0.00,,,0.22,Wunderground v.1.15,2013-05-10 18:40:00,
2013-05-10 13:50:00,78.2,63.2,29.92,NE,42,3.0,3.0,60,0.00,,,0.22,Wunderground v.1.15,2013-05-10 18:50:00,
2013-05-10 14:00:00,78.2,62.2,29.91,NE,34,4.0,4.0,58,0.00,,,0.22,Wunderground v.1.15,2013-05-10 19:00:00,
2013-05-10 14:10:00,78.2,62.7,29.90,NE,34,4.0,5.0,59,0.00,,,0.22,Wunderground v.1.15,2013-05-10 19:10:00,
2013-05-10 14:20:00,78.4,64.3,29.89,NE,35,2.0,9.0,62,0.00,,,0.22,Wunderground v.1.15,2013-05-10 19:20:00,
2013-05-10 14:30:00,79.0,64.4,29.89,ENE,65,6.0,10.0,61,0.00,,,0.22,Wunderground v.1.15,2013-05-10 19:30:00,
2013-05-10 14:40:00,79.2,63.6,29.88,NE,34,9.0,9.0,59,0.00,,,0.22,Wunderground v.1.15,2013-05-10 19:40:00,
2013-05-10 14:50:00,78.8,64.2,29.88,NNE,26,8.0,8.0,61,0.00,,,0.22,Wunderground v.1.15,2013-05-10 19:50:00,
2013-05-10 15:00:00,78.7,64.6,29.88,NNE,26,9.0,13.0,62,0.00,,,0.22,Wunderground v.1.15,2013-05-10 20:00:00,
2013-05-10 15:10:00,78.6,63.6,29.87,NNE,26,10.0,10.0,60,0.00,,,0.22,Wunderground v.1.15,2013-05-10 20:10:00,
2013-05-10 15:20:00,78.2,63.6,29.87,NNE,17,8.0,10.0,61,0.00,,,0.22,Wunderground v.1.15,2013-05-10 20:20:00,
2013-05-10 15:30:00,78.3,63.3,29.87,NE,35,10.0,10.0,60,0.00,,,0.22,Wunderground v.1.15,2013-05-10 20:30:00,
2013-05-10 15:40:00,78.5,63.5,29.86,NNE,31,12.0,12.0,60,0.00,,,0.22,Wunderground v.1.15,2013-05-10 20:40:00,
2013-05-10 15:50:00,78.1,63.1,29.86,NE,38,12.0,12.0,60,0.00,,,0.22,Wunderground v.1.15,2013-05-10 20:50:00,
2013-05-10 16:00:00,77.9,62.9,29.87,NNE,19,12.0,13.0,60,0.00,,,0.22,Wunderground v.1.15,2013-05-10 21:00:00,
2013-05-10 16:10:00,77.8,61.3,29.87,NNE,15,11.0,11.0,57,0.00,,,0.22,Wunderground v.1.15,2013-05-10 21:10:00,
2013-05-10 16:20:00,77.6,60.7,29.88,NNE,19,11.0,12.0,56,0.00,,,0.22,Wunderground v.1.15,2013-05-10 21:20:00,
2013-05-10 16:30:00,77.3,61.4,29.88,NNE,33,10.0,10.0,58,0.00,,,0.22,Wunderground v.1.15,2013-05-10 21:30:00,
2013-05-10 16:40:00,76.9,60.5,29.87,NE,48,9.0,10.0,57,0.00,,,0.22,Wunderground v.1.15,2013-05-10 21:40:00,
2013-05-10 16:50:00,76.7,61.3,29.87,NE,42,7.0,7.0,59,0.00,,,0.22,Wunderground v.1.15,2013-05-10 21:50:00,
2013-05-10 17:00:00,76.3,59.9,29.87,NE,36,8.0,8.0,57,0.00,,,0.22,Wunderground v.1.15,2013-05-10 22:00:00,
2013-05-10 17:10:00,76.0,61.1,29.89,NNE,29,4.0,4.0,60,0.00,,,0.22,Wunderground v.1.15,2013-05-10 22:10:00,
2013-05-10 17:40:00,61.7,59.7,29.92,NW,324,3.0,3.0,93,0.51,,,1.87,Wunderground v.1.15,2013-05-10 22:40:00,
2013-05-10 17:50:00,62.5,60.4,29.92,NNE,22,4.0,5.0,93,0.29,,,1.91,Wunderground v.1.15,2013-05-10 22:50:00,
2013-05-10 18:00:00,63.0,60.6,29.93,North,355,3.0,6.0,92,0.10,,,1.92,Wunderground v.1.15,2013-05-10 23:00:00,
2013-05-10 18:10:00,63.2,60.8,29.93,North,5,2.0,2.0,92,0.04,,,1.92,Wunderground v.1.15,2013-05-10 23:10:00,
2013-05-10 18:20:00,63.1,61.0,29.94,NW,304,1.0,1.0,93,0.00,,,1.93,Wunderground v.1.15,2013-05-10 23:20:00,
2013-05-10 18:30:00,63.0,60.9,29.94,NW,304,0.0,5.0,93,0.00,,,1.93,Wunderground v.1.15,2013-05-10 23:30:00,
2013-05-10 18:40:00,63.1,61.3,29.93,NW,306,0.0,5.0,94,0.00,,,1.93,Wunderground v.1.15,2013-05-10 23:40:00,
2013-05-10 18:50:00,63.2,61.1,29.93,NW,317,1.0,1.0,93,0.00,,,1.93,Wunderground v.1.15,2013-05-10 23:50:00,
2013-05-10 19:00:00,63.2,61.4,29.93,NW,317,0.0,5.0,94,0.00,,,1.93,Wunderground v.1.15,2013-05-11 00:00:00,
2013-05-10 19:10:00,63.3,61.5,29.95,NW,317,0.0,5.0,94,0.00,,,1.93,Wunderground v.1.15,2013-05-11 00:10:00,
2013-05-10 19:20:00,63.9,62.7,29.96,NW,316,0.0,5.0,96,0.00,,,1.93,Wunderground v.1.15,2013-05-11 00:20:00,
2013-05-10 19:30:00,64.5,63.0,29.95,NW,316,0.0,5.0,95,0.00,,,1.93,Wunderground v.1.15,2013-05-11 00:30:00,
2013-05-10 19:40:00,64.4,62.6,29.96,NW,315,1.0,5.0,94,0.00,,,1.93,Wunderground v.1.15,2013-05-11 00:40:00,
2013-05-10 19:50:00,64.2,62.4,29.95,NW,314,1.0,1.0,94,0.00,,,1.93,Wunderground v.1.15,2013-05-11 00:50:00,
2013-05-10 20:00:00,64.0,62.2,29.96,NW,314,0.0,5.0,94,0.00,,,1.93,Wunderground v.1.15,2013-05-11 01:00:00,
2013-05-10 20:10:00,63.7,61.9,29.95,NW,314,0.0,5.0,94,0.00,,,1.93,Wunderground v.1.15,2013-05-11 01:10:00,
2013-05-10 20:20:00,63.4,61.6,29.95,NW,314,0.0,5.0,94,0.00,,,1.93,Wunderground v.1.15,2013-05-11 01:20:00,
2013-05-10 20:30:00,63.1,61.3,29.96,NW,314,0.0,5.0,94,0.00,,,1.93,Wunderground v.1.15,2013-05-11 01:30:00,
2013-05-10 20:40:00,62.9,61.4,29.97,NW,308,0.0,5.0,95,0.00,,,1.93,Wunderground v.1.15,2013-05-11 01:40:00,
2013-05-10 20:50:00,62.8,61.3,29.97,NW,308,0.0,5.0,95,0.00,,,1.93,Wunderground v.1.15,2013-05-11 01:50:00,
2013-05-10 21:00:00,62.5,61.0,29.96,NW,308,0.0,5.0,95,0.00,,,1.93,Wunderground v.1.15,2013-05-11 02:00:00,
2013-05-10 21:10:00,62.2,60.8,29.98,NW,308,0.0,5.0,95,0.00,,,1.93,Wunderground v.1.15,2013-05-11 02:10:00,
2013-05-10 21:20:00,62.2,61.0,29.98,NW,308,0.0,5.0,96,0.00,,,1.93,Wunderground v.1.15,2013-05-11 02:20:00,
2013-05-10 21:30:00,62.2,61.0,29.98,NW,308,0.0,5.0,96,0.00,,,1.93,Wunderground v.1.15,2013-05-11 02:30:00,
2013-05-10 21:40:00,62.0,60.8,29.97,NW,308,0.0,5.0,96,0.00,,,1.93,Wunderground v.1.15,2013-05-11 02:40:00,
2013-05-10 21:50:00,61.6,60.4,29.98,NW,308,0.0,5.0,96,0.00,,,1.93,Wunderground v.1.15,2013-05-11 02:50:00,
2013-05-10 22:00:00,61.4,60.0,29.99,NW,308,0.0,5.0,95,0.00,,,1.93,Wunderground v.1.15,2013-05-11 03:00:00,
2013-05-10 22:10:00,61.3,60.2,29.98,NW,308,0.0,5.0,96,0.00,,,1.93,Wunderground v.1.15,2013-05-11 03:10:00,
2013-05-10 22:20:00,61.1,60.0,29.98,NW,308,0.0,5.0,96,0.00,,,1.93,Wunderground v.1.15,2013-05-11 03:20:00,
2013-05-10 22:30:00,60.8,59.4,29.99,NW,308,0.0,5.0,95,0.00,,,1.93,Wunderground v.1.15,2013-05-11 03:30:00,
2013-05-10 22:40:00,60.8,59.4,30.00,NW,308,1.0,5.0,95,0.00,,,1.93,Wunderground v.1.15,2013-05-11 03:40:00,
2013-05-10 22:50:00,61.0,59.6,30.01,NW,308,3.0,3.0,95,0.00,,,1.93,Wunderground v.1.15,2013-05-11 03:50:00,
2013-05-10 23:00:00,60.7,59.0,30.03,WNW,293,5.0,5.0,94,0.00,,,1.93,Wunderground v.1.15,2013-05-11 04:00:00,
2013-05-10 23:10:00,60.8,59.1,30.03,WNW,288,5.0,5.0,94,0.00,,,1.93,Wunderground v.1.15,2013-05-11 04:10:00,
2013-05-10 23:20:00,60.9,59.2,30.03,WNW,288,3.0,5.0,94,0.00,,,1.93,Wunderground v.1.15,2013-05-11 04:20:00,
2013-05-10 23:30:00,60.9,59.2,30.03,WNW,288,4.0,5.0,94,0.00,,,1.93,Wunderground v.1.15,2013-05-11 04:30:00,
2013-05-10 23:40:00,61.0,59.3,30.03,WNW,288,1.0,5.0,94,0.00,,,1.93,Wunderground v.1.15,2013-05-11 04:40:00,
2013-05-10 23:50:00,61.2,59.5,30.03,WNW,288,0.0,5.0,94,0.00,,,1.93,Wunderground v.1.15,2013-05-11 04:50:00,